sensor_id;sensor_type;location;lat;lon;timestamp;temperature;humidity
5779;DHT22;2916;49.798;10.022;2024-02-21T00:00:02;7.60;1.00
5779;DHT22;2916;49.798;10.022;2024-02-21T00:02:29;7.60;1.00
5779;DHT22;2916;49.798;10.022;2024-02-21T00:04:56;7.60;1.00
5779;DHT22;2916;49.798;10.022;2024-02-21T00:07:22;7.70;1.00
5779;DHT22;2916;49.798;10.022;2024-02-21T00:09:51;7.60;1.00
5779;DHT22;2916;49.798;10.022;2024-02-21T00:12:18;7.70;1.00
5779;DHT22;2916;49.798;10.022;2024-02-21T00:14:45;7.60;1.00
5779;DHT22;2916;49.798;10.022;2024-02-21T00:17:11;7.60;1.00
5779;DHT22;2916;49.798;10.022;2024-02-21T00:19:38;7.60;1.00
5779;DHT22;2916;49.798;10.022;2024-02-21T00:22:05;7.70;1.00
5779;DHT22;2916;49.798;10.022;2024-02-21T00:24:32;7.60;1.00
5779;DHT22;2916;49.798;10.022;2024-02-21T00:27:00;7.70;1.00
5779;DHT22;2916;49.798;10.022;2024-02-21T00:29:27;7.60;1.00
5779;DHT22;2916;49.798;10.022;2024-02-21T00:31:54;7.60;1.00
5779;DHT22;2916;49.798;10.022;2024-02-21T00:34:21;7.60;1.00
5779;DHT22;2916;49.798;10.022;2024-02-21T00:36:48;7.60;1.00
5779;DHT22;2916;49.798;10.022;2024-02-21T00:39:15;7.60;1.00
5779;DHT22;2916;49.798;10.022;2024-02-21T00:41:42;7.60;1.00
5779;DHT22;2916;49.798;10.022;2024-02-21T00:44:11;7.60;1.00
5779;DHT22;2916;49.798;10.022;2024-02-21T00:46:37;7.60;1.00
5779;DHT22;2916;49.798;10.022;2024-02-21T00:49:04;7.60;1.00
5779;DHT22;2916;49.798;10.022;2024-02-21T00:51:32;7.50;1.00
5779;DHT22;2916;49.798;10.022;2024-02-21T00:53:59;7.50;1.00
5779;DHT22;2916;49.798;10.022;2024-02-21T00:56:27;7.50;1.00
5779;DHT22;2916;49.798;10.022;2024-02-21T00:58:55;7.50;1.00
5779;DHT22;2916;49.798;10.022;2024-02-21T01:01:24;7.50;1.00
5779;DHT22;2916;49.798;10.022;2024-02-21T01:03:51;7.50;1.00
5779;DHT22;2916;49.798;10.022;2024-02-21T01:06:19;7.50;1.00
5779;DHT22;2916;49.798;10.022;2024-02-21T01:08:46;7.50;1.00
5779;DHT22;2916;49.798;10.022;2024-02-21T01:11:13;7.50;1.00
5779;DHT22;2916;49.798;10.022;2024-02-21T01:13:40;7.50;1.00
5779;DHT22;2916;49.798;10.022;2024-02-21T01:16:07;7.40;1.00
5779;DHT22;2916;49.798;10.022;2024-02-21T01:18:37;7.40;1.00
5779;DHT22;2916;49.798;10.022;2024-02-21T01:21:04;7.40;1.00
5779;DHT22;2916;49.798;10.022;2024-02-21T01:23:32;7.40;1.00
5779;DHT22;2916;49.798;10.022;2024-02-21T01:25:59;7.40;1.00
5779;DHT22;2916;49.798;10.022;2024-02-21T01:28:26;7.40;1.00
5779;DHT22;2916;49.798;10.022;2024-02-21T01:30:53;7.40;1.00
5779;DHT22;2916;49.798;10.022;2024-02-21T01:33:20;7.40;1.00
5779;DHT22;2916;49.798;10.022;2024-02-21T01:35:48;7.40;1.00
5779;DHT22;2916;49.798;10.022;2024-02-21T01:38:15;7.40;1.00
5779;DHT22;2916;49.798;10.022;2024-02-21T01:40:42;7.40;1.00
5779;DHT22;2916;49.798;10.022;2024-02-21T01:43:16;7.40;1.00
5779;DHT22;2916;49.798;10.022;2024-02-21T01:45:43;7.40;1.00
5779;DHT22;2916;49.798;10.022;2024-02-21T01:48:12;7.40;1.00
5779;DHT22;2916;49.798;10.022;2024-02-21T01:50:39;7.40;1.00
5779;DHT22;2916;49.798;10.022;2024-02-21T01:53:08;7.40;1.00
5779;DHT22;2916;49.798;10.022;2024-02-21T01:55:35;7.30;1.00
5779;DHT22;2916;49.798;10.022;2024-02-21T01:58:03;7.40;1.00
5779;DHT22;2916;49.798;10.022;2024-02-21T02:00:30;7.30;1.00
5779;DHT22;2916;49.798;10.022;2024-02-21T02:02:58;7.40;1.00
5779;DHT22;2916;49.798;10.022;2024-02-21T02:05:25;7.40;1.00
5779;DHT22;2916;49.798;10.022;2024-02-21T02:07:52;7.30;1.00
5779;DHT22;2916;49.798;10.022;2024-02-21T02:10:20;7.40;1.00
5779;DHT22;2916;49.798;10.022;2024-02-21T02:12:47;7.40;1.00
5779;DHT22;2916;49.798;10.022;2024-02-21T02:15:14;7.40;2.80
5779;DHT22;2916;49.798;10.022;2024-02-21T02:17:41;7.40;9.70
5779;DHT22;2916;49.798;10.022;2024-02-21T02:20:08;7.30;19.10
5779;DHT22;2916;49.798;10.022;2024-02-21T02:22:37;7.30;27.90
5779;DHT22;2916;49.798;10.022;2024-02-21T02:25:07;7.30;41.30
5779;DHT22;2916;49.798;10.022;2024-02-21T02:27:41;7.30;49.40
5779;DHT22;2916;49.798;10.022;2024-02-21T02:30:10;7.20;51.60
5779;DHT22;2916;49.798;10.022;2024-02-21T02:32:37;7.20;57.00
5779;DHT22;2916;49.798;10.022;2024-02-21T02:35:05;7.20;64.40
5779;DHT22;2916;49.798;10.022;2024-02-21T02:37:32;7.20;69.00
5779;DHT22;2916;49.798;10.022;2024-02-21T02:39:59;7.20;72.50
5779;DHT22;2916;49.798;10.022;2024-02-21T02:42:27;7.10;78.00
5779;DHT22;2916;49.798;10.022;2024-02-21T02:44:54;7.10;81.60
5779;DHT22;2916;49.798;10.022;2024-02-21T02:47:22;7.10;81.20
5779;DHT22;2916;49.798;10.022;2024-02-21T02:49:49;7.10;82.30
5779;DHT22;2916;49.798;10.022;2024-02-21T02:52:17;7.10;84.60
5779;DHT22;2916;49.798;10.022;2024-02-21T02:54:44;7.10;87.10
5779;DHT22;2916;49.798;10.022;2024-02-21T02:57:11;7.10;87.50
5779;DHT22;2916;49.798;10.022;2024-02-21T02:59:39;7.00;86.00
5779;DHT22;2916;49.798;10.022;2024-02-21T03:02:06;7.00;86.90
5779;DHT22;2916;49.798;10.022;2024-02-21T03:04:33;7.10;89.50
5779;DHT22;2916;49.798;10.022;2024-02-21T03:07:00;7.10;90.20
5779;DHT22;2916;49.798;10.022;2024-02-21T03:09:27;7.00;90.90
5779;DHT22;2916;49.798;10.022;2024-02-21T03:11:54;7.10;92.10
5779;DHT22;2916;49.798;10.022;2024-02-21T03:14:28;7.00;93.30
5779;DHT22;2916;49.798;10.022;2024-02-21T03:16:56;7.00;94.40
5779;DHT22;2916;49.798;10.022;2024-02-21T03:19:23;7.00;94.40
5779;DHT22;2916;49.798;10.022;2024-02-21T03:21:50;7.00;96.70
5779;DHT22;2916;49.798;10.022;2024-02-21T03:24:17;7.00;97.70
5779;DHT22;2916;49.798;10.022;2024-02-21T03:26:45;7.00;98.50
5779;DHT22;2916;49.798;10.022;2024-02-21T03:29:13;7.00;98.70
5779;DHT22;2916;49.798;10.022;2024-02-21T03:31:41;7.00;97.90
5779;DHT22;2916;49.798;10.022;2024-02-21T03:34:10;7.00;98.60
5779;DHT22;2916;49.798;10.022;2024-02-21T03:36:37;6.90;99.10
5779;DHT22;2916;49.798;10.022;2024-02-21T03:39:04;6.90;99.70
5779;DHT22;2916;49.798;10.022;2024-02-21T03:41:31;6.90;99.40
5779;DHT22;2916;49.798;10.022;2024-02-21T03:43:58;6.90;99.40
5779;DHT22;2916;49.798;10.022;2024-02-21T03:46:25;6.90;99.50
5779;DHT22;2916;49.798;10.022;2024-02-21T03:48:51;6.90;99.90
5779;DHT22;2916;49.798;10.022;2024-02-21T03:51:20;6.90;99.90
5779;DHT22;2916;49.798;10.022;2024-02-21T03:53:47;6.90;99.80
5779;DHT22;2916;49.798;10.022;2024-02-21T03:56:13;6.90;99.90
5779;DHT22;2916;49.798;10.022;2024-02-21T03:58:40;6.90;99.90
5779;DHT22;2916;49.798;10.022;2024-02-21T04:01:07;6.90;99.90
5779;DHT22;2916;49.798;10.022;2024-02-21T04:03:34;6.90;99.90
5779;DHT22;2916;49.798;10.022;2024-02-21T04:06:01;6.90;99.70
5779;DHT22;2916;49.798;10.022;2024-02-21T04:08:29;6.80;99.90
5779;DHT22;2916;49.798;10.022;2024-02-21T04:10:56;6.90;99.90
5779;DHT22;2916;49.798;10.022;2024-02-21T04:13:23;6.90;99.90
5779;DHT22;2916;49.798;10.022;2024-02-21T04:15:51;6.80;99.90
5779;DHT22;2916;49.798;10.022;2024-02-21T04:18:18;6.90;99.90
5779;DHT22;2916;49.798;10.022;2024-02-21T04:20:45;6.80;99.90
5779;DHT22;2916;49.798;10.022;2024-02-21T04:23:11;6.80;99.90
5779;DHT22;2916;49.798;10.022;2024-02-21T04:25:40;6.80;99.20
5779;DHT22;2916;49.798;10.022;2024-02-21T04:28:07;6.80;99.10
5779;DHT22;2916;49.798;10.022;2024-02-21T04:30:34;6.80;99.90
5779;DHT22;2916;49.798;10.022;2024-02-21T04:33:00;6.70;99.90
5779;DHT22;2916;49.798;10.022;2024-02-21T04:35:27;6.70;99.90
5779;DHT22;2916;49.798;10.022;2024-02-21T04:37:55;6.70;99.90
5779;DHT22;2916;49.798;10.022;2024-02-21T04:40:22;6.70;99.90
5779;DHT22;2916;49.798;10.022;2024-02-21T04:42:50;6.70;99.90
5779;DHT22;2916;49.798;10.022;2024-02-21T04:45:17;6.60;99.90
5779;DHT22;2916;49.798;10.022;2024-02-21T04:47:44;6.70;99.90
5779;DHT22;2916;49.798;10.022;2024-02-21T04:50:10;6.60;99.90
5779;DHT22;2916;49.798;10.022;2024-02-21T04:52:38;6.60;99.90
5779;DHT22;2916;49.798;10.022;2024-02-21T04:55:05;6.60;99.90
5779;DHT22;2916;49.798;10.022;2024-02-21T04:57:33;6.60;99.90
5779;DHT22;2916;49.798;10.022;2024-02-21T05:00:01;6.50;99.90
5779;DHT22;2916;49.798;10.022;2024-02-21T05:02:29;6.50;99.90
5779;DHT22;2916;49.798;10.022;2024-02-21T05:04:56;6.50;99.90
5779;DHT22;2916;49.798;10.022;2024-02-21T05:07:23;6.50;99.90
5779;DHT22;2916;49.798;10.022;2024-02-21T05:09:49;6.50;99.90
5779;DHT22;2916;49.798;10.022;2024-02-21T05:12:16;6.50;99.90
5779;DHT22;2916;49.798;10.022;2024-02-21T05:14:43;6.40;99.90
5779;DHT22;2916;49.798;10.022;2024-02-21T05:17:11;6.40;99.90
5779;DHT22;2916;49.798;10.022;2024-02-21T05:19:38;6.40;99.90
5779;DHT22;2916;49.798;10.022;2024-02-21T05:22:05;6.40;99.90
5779;DHT22;2916;49.798;10.022;2024-02-21T05:24:33;6.40;99.90
5779;DHT22;2916;49.798;10.022;2024-02-21T05:26:59;6.40;99.90
5779;DHT22;2916;49.798;10.022;2024-02-21T05:29:26;6.40;99.90
5779;DHT22;2916;49.798;10.022;2024-02-21T05:31:57;6.40;99.90
5779;DHT22;2916;49.798;10.022;2024-02-21T05:34:26;6.40;99.90
5779;DHT22;2916;49.798;10.022;2024-02-21T05:36:53;6.40;99.90
5779;DHT22;2916;49.798;10.022;2024-02-21T05:39:20;6.40;99.90
5779;DHT22;2916;49.798;10.022;2024-02-21T05:41:48;6.40;99.90
5779;DHT22;2916;49.798;10.022;2024-02-21T05:44:16;6.50;99.90
5779;DHT22;2916;49.798;10.022;2024-02-21T05:46:43;6.50;99.90
5779;DHT22;2916;49.798;10.022;2024-02-21T05:49:10;6.40;99.90
5779;DHT22;2916;49.798;10.022;2024-02-21T05:51:39;6.40;99.90
5779;DHT22;2916;49.798;10.022;2024-02-21T05:54:05;6.40;99.90
5779;DHT22;2916;49.798;10.022;2024-02-21T05:56:33;6.40;99.90
5779;DHT22;2916;49.798;10.022;2024-02-21T05:59:00;6.30;99.90
5779;DHT22;2916;49.798;10.022;2024-02-21T06:01:27;6.30;99.90
5779;DHT22;2916;49.798;10.022;2024-02-21T06:03:54;6.30;99.90
5779;DHT22;2916;49.798;10.022;2024-02-21T06:06:21;6.30;99.90
5779;DHT22;2916;49.798;10.022;2024-02-21T06:08:49;6.30;99.90
5779;DHT22;2916;49.798;10.022;2024-02-21T06:11:16;6.30;99.90
5779;DHT22;2916;49.798;10.022;2024-02-21T06:13:43;6.20;99.90
5779;DHT22;2916;49.798;10.022;2024-02-21T06:16:10;6.20;99.90
5779;DHT22;2916;49.798;10.022;2024-02-21T06:18:38;6.20;99.90
5779;DHT22;2916;49.798;10.022;2024-02-21T06:21:05;6.20;99.90
5779;DHT22;2916;49.798;10.022;2024-02-21T06:23:32;6.20;99.90
5779;DHT22;2916;49.798;10.022;2024-02-21T06:26:00;6.20;99.90
5779;DHT22;2916;49.798;10.022;2024-02-21T06:28:27;6.20;99.90
5779;DHT22;2916;49.798;10.022;2024-02-21T06:30:54;6.20;99.90
5779;DHT22;2916;49.798;10.022;2024-02-21T06:33:21;6.30;99.90
5779;DHT22;2916;49.798;10.022;2024-02-21T06:35:50;6.30;99.90
5779;DHT22;2916;49.798;10.022;2024-02-21T06:38:19;6.30;99.90
5779;DHT22;2916;49.798;10.022;2024-02-21T06:40:46;6.30;99.90
5779;DHT22;2916;49.798;10.022;2024-02-21T06:43:20;6.30;99.90
5779;DHT22;2916;49.798;10.022;2024-02-21T06:45:47;6.40;99.90
5779;DHT22;2916;49.798;10.022;2024-02-21T06:48:17;6.40;99.90
5779;DHT22;2916;49.798;10.022;2024-02-21T06:50:44;6.40;99.90
5779;DHT22;2916;49.798;10.022;2024-02-21T06:53:12;6.40;99.90
5779;DHT22;2916;49.798;10.022;2024-02-21T06:55:38;6.50;99.90
5779;DHT22;2916;49.798;10.022;2024-02-21T06:58:05;6.40;99.90
5779;DHT22;2916;49.798;10.022;2024-02-21T07:00:38;6.50;99.90
5779;DHT22;2916;49.798;10.022;2024-02-21T07:03:05;6.50;99.90
5779;DHT22;2916;49.798;10.022;2024-02-21T07:05:32;6.60;99.90
5779;DHT22;2916;49.798;10.022;2024-02-21T07:07:59;6.60;99.90
5779;DHT22;2916;49.798;10.022;2024-02-21T07:10:26;6.60;99.90
5779;DHT22;2916;49.798;10.022;2024-02-21T07:12:54;6.60;99.90
5779;DHT22;2916;49.798;10.022;2024-02-21T07:15:21;6.60;99.90
5779;DHT22;2916;49.798;10.022;2024-02-21T07:17:49;6.60;99.90
5779;DHT22;2916;49.798;10.022;2024-02-21T07:20:16;6.60;99.50
5779;DHT22;2916;49.798;10.022;2024-02-21T07:22:43;6.70;98.30
5779;DHT22;2916;49.798;10.022;2024-02-21T07:25:10;6.70;98.20
5779;DHT22;2916;49.798;10.022;2024-02-21T07:27:37;6.70;97.80
5779;DHT22;2916;49.798;10.022;2024-02-21T07:30:05;6.80;98.20
5779;DHT22;2916;49.798;10.022;2024-02-21T07:32:32;6.70;97.90
5779;DHT22;2916;49.798;10.022;2024-02-21T07:35:01;6.70;97.90
5779;DHT22;2916;49.798;10.022;2024-02-21T07:37:27;6.80;99.10
5779;DHT22;2916;49.798;10.022;2024-02-21T07:39:54;6.80;98.50
5779;DHT22;2916;49.798;10.022;2024-02-21T07:42:21;6.90;97.10
5779;DHT22;2916;49.798;10.022;2024-02-21T07:44:48;6.90;95.20
5779;DHT22;2916;49.798;10.022;2024-02-21T07:47:15;7.00;94.30
5779;DHT22;2916;49.798;10.022;2024-02-21T07:49:44;7.00;93.00
5779;DHT22;2916;49.798;10.022;2024-02-21T07:52:12;7.00;87.30
5779;DHT22;2916;49.798;10.022;2024-02-21T07:54:39;7.10;91.60
5779;DHT22;2916;49.798;10.022;2024-02-21T07:57:07;7.10;88.20
5779;DHT22;2916;49.798;10.022;2024-02-21T07:59:33;7.10;88.40
5779;DHT22;2916;49.798;10.022;2024-02-21T08:02:00;7.10;84.80
5779;DHT22;2916;49.798;10.022;2024-02-21T08:04:28;7.20;82.50
5779;DHT22;2916;49.798;10.022;2024-02-21T08:06:55;7.20;79.00
5779;DHT22;2916;49.798;10.022;2024-02-21T08:09:26;7.20;71.80
5779;DHT22;2916;49.798;10.022;2024-02-21T08:11:54;7.20;72.50
5779;DHT22;2916;49.798;10.022;2024-02-21T08:14:21;7.20;65.20
5779;DHT22;2916;49.798;10.022;2024-02-21T08:16:50;7.30;58.10
5779;DHT22;2916;49.798;10.022;2024-02-21T08:19:17;7.30;61.90
5779;DHT22;2916;49.798;10.022;2024-02-21T08:21:44;7.40;57.20
5779;DHT22;2916;49.798;10.022;2024-02-21T08:24:12;7.30;59.20
5779;DHT22;2916;49.798;10.022;2024-02-21T08:26:41;7.40;55.90
5779;DHT22;2916;49.798;10.022;2024-02-21T08:29:10;7.40;53.30
5779;DHT22;2916;49.798;10.022;2024-02-21T08:31:37;7.50;56.90
5779;DHT22;2916;49.798;10.022;2024-02-21T08:34:04;7.70;52.50
5779;DHT22;2916;49.798;10.022;2024-02-21T08:36:31;7.80;47.60
5779;DHT22;2916;49.798;10.022;2024-02-21T08:39:00;7.70;29.90
5779;DHT22;2916;49.798;10.022;2024-02-21T08:41:29;7.90;34.80
5779;DHT22;2916;49.798;10.022;2024-02-21T08:43:58;8.00;30.20
5779;DHT22;2916;49.798;10.022;2024-02-21T08:46:25;8.20;23.90
5779;DHT22;2916;49.798;10.022;2024-02-21T08:48:52;8.10;18.80
5779;DHT22;2916;49.798;10.022;2024-02-21T08:51:19;8.30;15.20
5779;DHT22;2916;49.798;10.022;2024-02-21T08:53:47;8.40;17.90
5779;DHT22;2916;49.798;10.022;2024-02-21T08:56:14;8.30;8.20
5779;DHT22;2916;49.798;10.022;2024-02-21T08:58:41;8.20;9.80
5779;DHT22;2916;49.798;10.022;2024-02-21T09:01:10;8.20;9.80
5779;DHT22;2916;49.798;10.022;2024-02-21T09:03:37;8.30;10.10
5779;DHT22;2916;49.798;10.022;2024-02-21T09:06:04;8.40;7.80
5779;DHT22;2916;49.798;10.022;2024-02-21T09:08:32;8.40;7.60
5779;DHT22;2916;49.798;10.022;2024-02-21T09:11:00;8.60;10.40
5779;DHT22;2916;49.798;10.022;2024-02-21T09:13:27;8.60;4.10
5779;DHT22;2916;49.798;10.022;2024-02-21T09:15:54;8.60;1.00
5779;DHT22;2916;49.798;10.022;2024-02-21T09:18:22;8.80;1.00
5779;DHT22;2916;49.798;10.022;2024-02-21T09:20:49;8.80;1.00
5779;DHT22;2916;49.798;10.022;2024-02-21T09:23:16;8.80;1.00
5779;DHT22;2916;49.798;10.022;2024-02-21T09:25:45;8.80;1.00
5779;DHT22;2916;49.798;10.022;2024-02-21T09:28:12;8.90;1.00
5779;DHT22;2916;49.798;10.022;2024-02-21T09:30:39;9.00;1.00
5779;DHT22;2916;49.798;10.022;2024-02-21T09:33:06;9.00;1.00
5779;DHT22;2916;49.798;10.022;2024-02-21T09:35:35;9.00;1.00
5779;DHT22;2916;49.798;10.022;2024-02-21T09:38:02;9.00;1.00
5779;DHT22;2916;49.798;10.022;2024-02-21T09:40:29;9.00;1.00
5779;DHT22;2916;49.798;10.022;2024-02-21T09:43:02;9.10;1.00
5779;DHT22;2916;49.798;10.022;2024-02-21T09:45:33;9.00;1.00
5779;DHT22;2916;49.798;10.022;2024-02-21T09:48:19;9.10;1.00
5779;DHT22;2916;49.798;10.022;2024-02-21T09:50:51;9.20;1.00
5779;DHT22;2916;49.798;10.022;2024-02-21T09:53:19;9.10;1.00
5779;DHT22;2916;49.798;10.022;2024-02-21T09:55:47;9.20;1.00
5779;DHT22;2916;49.798;10.022;2024-02-21T09:58:15;9.20;1.00
5779;DHT22;2916;49.798;10.022;2024-02-21T10:00:42;9.20;1.00
5779;DHT22;2916;49.798;10.022;2024-02-21T10:03:09;9.20;1.00
5779;DHT22;2916;49.798;10.022;2024-02-21T10:05:36;9.30;1.00
5779;DHT22;2916;49.798;10.022;2024-02-21T10:08:05;9.30;1.00
5779;DHT22;2916;49.798;10.022;2024-02-21T10:10:42;9.30;1.00
5779;DHT22;2916;49.798;10.022;2024-02-21T10:13:09;9.30;1.00
5779;DHT22;2916;49.798;10.022;2024-02-21T10:15:36;9.40;1.00
5779;DHT22;2916;49.798;10.022;2024-02-21T10:18:04;9.40;1.00
5779;DHT22;2916;49.798;10.022;2024-02-21T10:20:32;9.50;1.00
5779;DHT22;2916;49.798;10.022;2024-02-21T10:23:05;9.60;1.00
5779;DHT22;2916;49.798;10.022;2024-02-21T10:25:35;9.70;1.00
5779;DHT22;2916;49.798;10.022;2024-02-21T10:28:04;9.90;1.00
5779;DHT22;2916;49.798;10.022;2024-02-21T10:30:31;9.90;1.00
5779;DHT22;2916;49.798;10.022;2024-02-21T10:32:58;10.00;1.00
5779;DHT22;2916;49.798;10.022;2024-02-21T10:35:29;9.90;1.00
5779;DHT22;2916;49.798;10.022;2024-02-21T10:37:57;9.90;1.00
5779;DHT22;2916;49.798;10.022;2024-02-21T10:40:26;9.90;1.00
5779;DHT22;2916;49.798;10.022;2024-02-21T10:42:57;9.90;1.00
5779;DHT22;2916;49.798;10.022;2024-02-21T10:45:31;10.00;1.00
5779;DHT22;2916;49.798;10.022;2024-02-21T10:48:09;10.10;1.00
5779;DHT22;2916;49.798;10.022;2024-02-21T10:50:47;10.10;1.00
5779;DHT22;2916;49.798;10.022;2024-02-21T10:53:29;10.10;1.00
5779;DHT22;2916;49.798;10.022;2024-02-21T10:56:09;10.20;1.00
5779;DHT22;2916;49.798;10.022;2024-02-21T10:58:38;10.30;1.00
5779;DHT22;2916;49.798;10.022;2024-02-21T11:01:06;10.30;1.00
5779;DHT22;2916;49.798;10.022;2024-02-21T11:03:34;10.40;1.00
5779;DHT22;2916;49.798;10.022;2024-02-21T11:06:03;10.40;1.00
5779;DHT22;2916;49.798;10.022;2024-02-21T11:08:31;10.30;1.00
5779;DHT22;2916;49.798;10.022;2024-02-21T11:11:00;10.60;1.00
5779;DHT22;2916;49.798;10.022;2024-02-21T11:13:30;10.60;1.00
5779;DHT22;2916;49.798;10.022;2024-02-21T11:16:07;10.60;1.00
5779;DHT22;2916;49.798;10.022;2024-02-21T11:18:34;10.60;1.00
5779;DHT22;2916;49.798;10.022;2024-02-21T11:21:01;10.80;1.00
5779;DHT22;2916;49.798;10.022;2024-02-21T11:23:30;11.00;1.00
5779;DHT22;2916;49.798;10.022;2024-02-21T11:26:06;11.20;1.00
5779;DHT22;2916;49.798;10.022;2024-02-21T11:28:33;11.30;1.00
5779;DHT22;2916;49.798;10.022;2024-02-21T11:31:07;11.20;1.00
5779;DHT22;2916;49.798;10.022;2024-02-21T11:33:35;11.00;1.00
5779;DHT22;2916;49.798;10.022;2024-02-21T11:36:02;10.90;1.00
5779;DHT22;2916;49.798;10.022;2024-02-21T11:38:30;10.90;1.00
5779;DHT22;2916;49.798;10.022;2024-02-21T11:40:57;11.00;1.00
5779;DHT22;2916;49.798;10.022;2024-02-21T11:43:26;11.00;1.00
5779;DHT22;2916;49.798;10.022;2024-02-21T11:45:59;11.00;1.00
5779;DHT22;2916;49.798;10.022;2024-02-21T11:48:26;11.40;1.00
5779;DHT22;2916;49.798;10.022;2024-02-21T11:50:54;11.30;1.00
5779;DHT22;2916;49.798;10.022;2024-02-21T11:53:21;11.10;1.00
5779;DHT22;2916;49.798;10.022;2024-02-21T11:55:49;11.20;1.00
5779;DHT22;2916;49.798;10.022;2024-02-21T11:58:16;11.20;1.00
5779;DHT22;2916;49.798;10.022;2024-02-21T12:00:44;11.30;1.00
5779;DHT22;2916;49.798;10.022;2024-02-21T12:03:11;11.30;1.00
5779;DHT22;2916;49.798;10.022;2024-02-21T12:05:38;11.30;1.00
5779;DHT22;2916;49.798;10.022;2024-02-21T12:08:06;11.30;1.00
5779;DHT22;2916;49.798;10.022;2024-02-21T12:10:35;11.30;1.00
5779;DHT22;2916;49.798;10.022;2024-02-21T12:13:06;11.40;1.00
5779;DHT22;2916;49.798;10.022;2024-02-21T12:15:33;11.60;1.00
5779;DHT22;2916;49.798;10.022;2024-02-21T12:18:02;11.60;1.00
5779;DHT22;2916;49.798;10.022;2024-02-21T12:20:28;11.80;1.00
5779;DHT22;2916;49.798;10.022;2024-02-21T12:23:00;11.70;1.00
5779;DHT22;2916;49.798;10.022;2024-02-21T12:25:28;11.70;1.00
5779;DHT22;2916;49.798;10.022;2024-02-21T12:27:55;11.70;1.00
5779;DHT22;2916;49.798;10.022;2024-02-21T12:30:22;11.60;1.00
5779;DHT22;2916;49.798;10.022;2024-02-21T12:32:49;11.60;1.00
5779;DHT22;2916;49.798;10.022;2024-02-21T12:35:17;11.70;1.00
5779;DHT22;2916;49.798;10.022;2024-02-21T12:37:44;11.70;1.00
5779;DHT22;2916;49.798;10.022;2024-02-21T12:40:11;11.70;1.00
5779;DHT22;2916;49.798;10.022;2024-02-21T12:42:40;11.70;1.00
5779;DHT22;2916;49.798;10.022;2024-02-21T12:45:07;11.70;1.00
5779;DHT22;2916;49.798;10.022;2024-02-21T12:47:34;11.70;1.00
5779;DHT22;2916;49.798;10.022;2024-02-21T12:50:01;11.60;1.00
5779;DHT22;2916;49.798;10.022;2024-02-21T12:52:33;11.60;1.00
5779;DHT22;2916;49.798;10.022;2024-02-21T12:55:00;11.80;1.00
5779;DHT22;2916;49.798;10.022;2024-02-21T12:57:27;11.70;1.00
5779;DHT22;2916;49.798;10.022;2024-02-21T12:59:54;11.60;1.00
5779;DHT22;2916;49.798;10.022;2024-02-21T13:02:21;11.40;1.00
5779;DHT22;2916;49.798;10.022;2024-02-21T13:04:48;11.60;1.00
5779;DHT22;2916;49.798;10.022;2024-02-21T13:07:15;11.50;1.00
5779;DHT22;2916;49.798;10.022;2024-02-21T13:09:43;11.50;1.00
5779;DHT22;2916;49.798;10.022;2024-02-21T13:12:10;11.30;1.00
5779;DHT22;2916;49.798;10.022;2024-02-21T13:14:37;11.40;1.00
5779;DHT22;2916;49.798;10.022;2024-02-21T13:17:05;11.50;1.00
5779;DHT22;2916;49.798;10.022;2024-02-21T13:19:32;11.50;1.00
5779;DHT22;2916;49.798;10.022;2024-02-21T13:21:59;11.40;1.00
5779;DHT22;2916;49.798;10.022;2024-02-21T13:24:27;11.50;1.00
5779;DHT22;2916;49.798;10.022;2024-02-21T13:26:56;11.60;1.00
5779;DHT22;2916;49.798;10.022;2024-02-21T13:29:23;11.60;1.00
5779;DHT22;2916;49.798;10.022;2024-02-21T13:31:49;11.60;1.00
5779;DHT22;2916;49.798;10.022;2024-02-21T13:34:16;11.50;1.00
5779;DHT22;2916;49.798;10.022;2024-02-21T13:36:43;11.60;1.00
5779;DHT22;2916;49.798;10.022;2024-02-21T13:39:11;11.50;1.00
5779;DHT22;2916;49.798;10.022;2024-02-21T13:41:41;11.50;1.00
5779;DHT22;2916;49.798;10.022;2024-02-21T13:44:10;11.40;1.00
5779;DHT22;2916;49.798;10.022;2024-02-21T13:46:38;11.50;1.00
5779;DHT22;2916;49.798;10.022;2024-02-21T13:49:05;11.40;1.00
5779;DHT22;2916;49.798;10.022;2024-02-21T13:51:33;11.50;1.00
5779;DHT22;2916;49.798;10.022;2024-02-21T13:54:01;11.50;1.00
5779;DHT22;2916;49.798;10.022;2024-02-21T13:56:29;11.50;1.00
5779;DHT22;2916;49.798;10.022;2024-02-21T13:58:57;11.50;1.00
5779;DHT22;2916;49.798;10.022;2024-02-21T14:01:26;11.60;1.00
5779;DHT22;2916;49.798;10.022;2024-02-21T14:03:54;11.50;1.00
5779;DHT22;2916;49.798;10.022;2024-02-21T14:06:21;11.70;1.00
5779;DHT22;2916;49.798;10.022;2024-02-21T14:08:48;11.50;1.00
5779;DHT22;2916;49.798;10.022;2024-02-21T14:11:15;11.50;1.00
5779;DHT22;2916;49.798;10.022;2024-02-21T14:13:42;11.50;1.00
5779;DHT22;2916;49.798;10.022;2024-02-21T14:16:10;11.30;1.00
5779;DHT22;2916;49.798;10.022;2024-02-21T14:18:40;11.30;1.00
5779;DHT22;2916;49.798;10.022;2024-02-21T14:21:07;11.20;1.00
5779;DHT22;2916;49.798;10.022;2024-02-21T14:23:36;11.20;1.00
5779;DHT22;2916;49.798;10.022;2024-02-21T14:26:03;11.20;1.00
5779;DHT22;2916;49.798;10.022;2024-02-21T14:28:30;11.20;1.00
5779;DHT22;2916;49.798;10.022;2024-02-21T14:30:57;11.20;1.00
5779;DHT22;2916;49.798;10.022;2024-02-21T14:33:28;11.30;1.00
5779;DHT22;2916;49.798;10.022;2024-02-21T14:35:57;11.20;1.00
5779;DHT22;2916;49.798;10.022;2024-02-21T14:38:24;11.30;1.00
5779;DHT22;2916;49.798;10.022;2024-02-21T14:40:52;11.30;1.00
5779;DHT22;2916;49.798;10.022;2024-02-21T14:43:19;11.30;1.00
5779;DHT22;2916;49.798;10.022;2024-02-21T14:45:47;11.20;1.00
5779;DHT22;2916;49.798;10.022;2024-02-21T14:48:14;11.20;1.00
5779;DHT22;2916;49.798;10.022;2024-02-21T14:50:41;11.40;1.00
5779;DHT22;2916;49.798;10.022;2024-02-21T14:53:10;11.20;1.00
5779;DHT22;2916;49.798;10.022;2024-02-21T14:55:37;11.30;1.00
5779;DHT22;2916;49.798;10.022;2024-02-21T14:58:05;11.30;1.00
5779;DHT22;2916;49.798;10.022;2024-02-21T15:00:33;11.30;1.00
5779;DHT22;2916;49.798;10.022;2024-02-21T15:03:00;11.30;1.00
5779;DHT22;2916;49.798;10.022;2024-02-21T15:05:28;11.30;1.00
5779;DHT22;2916;49.798;10.022;2024-02-21T15:07:56;11.30;1.00
5779;DHT22;2916;49.798;10.022;2024-02-21T15:10:24;11.30;1.00
5779;DHT22;2916;49.798;10.022;2024-02-21T15:12:52;11.30;1.00
5779;DHT22;2916;49.798;10.022;2024-02-21T15:15:19;11.10;1.00
5779;DHT22;2916;49.798;10.022;2024-02-21T15:17:45;11.20;1.00
5779;DHT22;2916;49.798;10.022;2024-02-21T15:20:13;11.20;1.00
5779;DHT22;2916;49.798;10.022;2024-02-21T15:22:40;11.10;1.00
5779;DHT22;2916;49.798;10.022;2024-02-21T15:25:08;11.20;1.00
5779;DHT22;2916;49.798;10.022;2024-02-21T15:27:42;11.10;1.00
5779;DHT22;2916;49.798;10.022;2024-02-21T15:30:10;11.10;1.00
5779;DHT22;2916;49.798;10.022;2024-02-21T15:32:38;11.10;1.00
5779;DHT22;2916;49.798;10.022;2024-02-21T15:35:05;11.00;1.00
5779;DHT22;2916;49.798;10.022;2024-02-21T15:37:33;10.80;1.00
5779;DHT22;2916;49.798;10.022;2024-02-21T15:40:00;10.90;1.00
5779;DHT22;2916;49.798;10.022;2024-02-21T15:42:28;10.80;1.00
5779;DHT22;2916;49.798;10.022;2024-02-21T15:44:58;10.80;1.00
5779;DHT22;2916;49.798;10.022;2024-02-21T15:47:26;10.80;1.00
5779;DHT22;2916;49.798;10.022;2024-02-21T15:49:53;10.70;1.00
5779;DHT22;2916;49.798;10.022;2024-02-21T15:52:20;10.70;1.00
5779;DHT22;2916;49.798;10.022;2024-02-21T15:54:47;10.70;1.00
5779;DHT22;2916;49.798;10.022;2024-02-21T15:57:14;10.70;1.00
5779;DHT22;2916;49.798;10.022;2024-02-21T15:59:42;10.70;1.00
5779;DHT22;2916;49.798;10.022;2024-02-21T16:02:10;10.60;1.00
5779;DHT22;2916;49.798;10.022;2024-02-21T16:04:37;10.60;1.00
5779;DHT22;2916;49.798;10.022;2024-02-21T16:07:05;10.50;1.00